createdAt,value
2023-03-26T00:02:29.614Z,7.60
2023-03-26T00:04:58.256Z,7.70
2023-03-26T00:07:27.950Z,7.70
2023-03-26T00:09:58.044Z,7.60
2023-03-26T00:12:26.480Z,7.70
2023-03-26T00:14:56.454Z,7.70
2023-03-26T00:17:24.813Z,7.60
2023-03-26T00:19:53.629Z,7.60
2023-03-26T00:22:23.594Z,7.60
2023-03-26T00:24:52.048Z,7.60
2023-03-26T00:27:20.275Z,7.60
2023-03-26T00:29:49.232Z,7.60
2023-03-26T00:32:18.821Z,7.60
2023-03-26T00:34:47.215Z,7.60
2023-03-26T00:37:15.486Z,7.40
2023-03-26T00:39:44.681Z,7.50
2023-03-26T00:42:14.836Z,7.40
2023-03-26T00:44:43.095Z,7.40
2023-03-26T00:47:11.401Z,7.40
2023-03-26T00:49:40.962Z,7.40
2023-03-26T00:52:09.918Z,7.40
2023-03-26T00:54:38.242Z,7.30
2023-03-26T00:57:06.905Z,7.40
2023-03-26T00:59:35.868Z,7.50
2023-03-26T01:02:05.188Z,7.40
2023-03-26T01:04:37.578Z,7.40
2023-03-26T01:07:14.461Z,7.40
2023-03-26T01:09:50.379Z,7.50
2023-03-26T01:12:23.195Z,7.50
2023-03-26T01:14:54.181Z,7.60
2023-03-26T01:17:24.591Z,7.60
2023-03-26T01:20:12.271Z,7.60
2023-03-26T01:22:48.747Z,7.60
2023-03-26T01:25:18.742Z,7.60
2023-03-26T01:27:53.079Z,7.70
2023-03-26T01:30:33.567Z,7.60
2023-03-26T01:33:13.850Z,7.60
2023-03-26T01:35:51.340Z,7.50
2023-03-26T01:38:35.490Z,7.70
2023-03-26T01:41:11.853Z,7.60
2023-03-26T01:43:49.148Z,7.60
2023-03-26T01:46:20.272Z,7.70
2023-03-26T01:48:49.873Z,7.70
2023-03-26T01:51:30.616Z,7.60
2023-03-26T01:54:00.666Z,7.60
2023-03-26T01:56:40.539Z,7.50
2023-03-26T01:59:28.933Z,7.60
2023-03-26T02:02:10.827Z,7.60
2023-03-26T02:04:53.388Z,7.50
2023-03-26T02:07:29.833Z,7.50
2023-03-26T02:10:06.280Z,7.50
2023-03-26T02:12:37.708Z,7.50
2023-03-26T02:15:08.240Z,7.50
2023-03-26T02:17:40.165Z,7.50
2023-03-26T02:20:11.266Z,7.40
2023-03-26T02:22:40.916Z,7.30
2023-03-26T02:25:15.773Z,7.30
2023-03-26T02:27:46.475Z,7.40
2023-03-26T02:30:18.828Z,7.30
2023-03-26T02:32:47.409Z,7.30
2023-03-26T02:35:15.907Z,7.30
2023-03-26T02:37:46.973Z,7.30
2023-03-26T02:40:16.157Z,7.30
2023-03-26T02:42:47.448Z,7.30
2023-03-26T02:45:16.099Z,7.50
2023-03-26T02:47:45.949Z,7.20
2023-03-26T02:50:14.551Z,7.10
2023-03-26T02:52:43.107Z,7.10
2023-03-26T02:55:12.700Z,7.10
2023-03-26T02:57:41.168Z,7.10
2023-03-26T03:00:16.730Z,7.00
2023-03-26T03:02:47.972Z,6.90
2023-03-26T03:05:19.755Z,7.00
2023-03-26T03:07:48.704Z,7.00
2023-03-26T03:10:21.840Z,6.90
2023-03-26T03:12:50.327Z,6.90
2023-03-26T03:15:20.293Z,6.80
2023-03-26T03:17:49.118Z,6.70
2023-03-26T03:20:18.320Z,6.80
2023-03-26T03:22:46.624Z,6.70
2023-03-26T03:25:17.578Z,6.70
2023-03-26T03:27:46.233Z,6.60
2023-03-26T03:30:15.569Z,6.60
2023-03-26T03:32:45.258Z,6.50
2023-03-26T03:35:13.783Z,6.40
2023-03-26T03:37:42.492Z,6.40
2023-03-26T03:40:11.862Z,6.50
2023-03-26T03:42:40.236Z,6.50
2023-03-26T03:45:10.059Z,6.50
2023-03-26T03:47:38.536Z,6.50
2023-03-26T03:50:10.687Z,6.50
2023-03-26T03:52:39.013Z,6.50
2023-03-26T03:55:10.591Z,6.40
2023-03-26T03:57:39.227Z,6.50
2023-03-26T04:00:10.029Z,6.50
2023-03-26T04:02:38.514Z,6.50
2023-03-26T04:05:09.071Z,6.60
2023-03-26T04:07:37.262Z,6.70
2023-03-26T04:10:08.555Z,6.70
2023-03-26T04:12:36.774Z,6.70
2023-03-26T04:15:05.996Z,6.60
2023-03-26T04:17:34.324Z,6.60
2023-03-26T04:20:14.540Z,6.60
2023-03-26T04:22:45.157Z,6.60
2023-03-26T04:25:15.505Z,6.50
2023-03-26T04:27:44.399Z,6.50
2023-03-26T04:30:18.294Z,6.60
2023-03-26T04:32:46.817Z,6.70
2023-03-26T04:35:18.241Z,6.70
2023-03-26T04:37:48.297Z,6.70
2023-03-26T04:40:20.454Z,6.80
2023-03-26T04:42:48.872Z,6.80
2023-03-26T04:45:22.815Z,6.80
2023-03-26T04:47:51.677Z,6.90
2023-03-26T04:50:20.270Z,6.80
2023-03-26T04:52:50.069Z,6.80
2023-03-26T04:55:25.551Z,6.80
2023-03-26T04:57:59.720Z,6.80
2023-03-26T05:00:28.583Z,6.80
2023-03-26T05:02:57.821Z,6.80
2023-03-26T05:05:28.008Z,6.70
2023-03-26T05:07:57.638Z,6.80
2023-03-26T05:10:25.917Z,6.80
2023-03-26T05:12:54.383Z,6.90
2023-03-26T05:15:22.857Z,6.80
2023-03-26T05:17:51.457Z,6.90
2023-03-26T05:20:22.879Z,6.80
2023-03-26T05:22:52.396Z,6.80
2023-03-26T05:25:22.528Z,6.80
2023-03-26T05:27:50.913Z,6.80
2023-03-26T05:30:22.292Z,6.80
2023-03-26T05:32:51.919Z,6.80
2023-03-26T05:35:21.243Z,6.80
2023-03-26T05:37:51.494Z,6.80
2023-03-26T05:40:21.840Z,7.00
2023-03-26T05:42:51.300Z,6.90
2023-03-26T05:45:19.727Z,7.00
2023-03-26T05:47:49.603Z,7.00
2023-03-26T05:50:18.034Z,6.90
2023-03-26T05:52:46.268Z,6.90
2023-03-26T05:55:14.706Z,6.90
2023-03-26T05:57:44.308Z,7.00
2023-03-26T06:00:15.071Z,6.90
2023-03-26T06:02:43.355Z,6.90
2023-03-26T06:05:12.428Z,7.00
2023-03-26T06:07:40.739Z,7.10
2023-03-26T06:10:10.648Z,7.10
2023-03-26T06:12:47.858Z,7.10
2023-03-26T06:15:16.310Z,7.20
2023-03-26T06:17:44.608Z,7.20
2023-03-26T06:20:14.613Z,7.30
2023-03-26T06:22:43.093Z,7.30
2023-03-26T06:25:11.758Z,7.10
2023-03-26T06:27:40.077Z,7.20
2023-03-26T06:30:11.756Z,7.10
2023-03-26T06:32:40.152Z,7.20
2023-03-26T06:35:09.797Z,7.30
2023-03-26T06:37:38.211Z,7.50
2023-03-26T06:40:08.691Z,7.60
2023-03-26T06:43:08.989Z,7.60
2023-03-26T06:45:26.561Z,7.70
2023-03-26T06:47:55.055Z,7.70
2023-03-26T06:50:23.482Z,7.60
2023-03-26T06:52:54.650Z,7.60
2023-03-26T06:55:23.675Z,7.70
2023-03-26T06:57:53.711Z,7.70
2023-03-26T07:00:23.012Z,7.70
2023-03-26T07:02:52.834Z,7.50
2023-03-26T07:05:21.512Z,7.70
2023-03-26T07:07:51.144Z,7.80
2023-03-26T07:10:19.880Z,7.70
2023-03-26T07:12:49.829Z,7.80
2023-03-26T07:15:18.215Z,7.90
2023-03-26T07:17:46.730Z,8.00
2023-03-26T07:20:16.603Z,8.20
2023-03-26T07:22:45.774Z,8.10
2023-03-26T07:25:18.181Z,8.20
2023-03-26T07:28:02.200Z,8.10
2023-03-26T07:30:49.767Z,8.30
2023-03-26T07:33:29.952Z,8.50
2023-03-26T07:36:16.929Z,8.50
2023-03-26T07:39:09.104Z,8.60
2023-03-26T07:41:50.933Z,8.70
2023-03-26T07:44:42.492Z,8.70
2023-03-26T07:47:25.695Z,8.60
2023-03-26T07:49:58.012Z,7.90
2023-03-26T07:52:29.398Z,8.40
2023-03-26T07:54:58.641Z,8.40
2023-03-26T07:57:44.383Z,8.40
2023-03-26T08:00:22.044Z,8.40
2023-03-26T08:03:27.859Z,8.60
2023-03-26T08:06:12.212Z,8.90
2023-03-26T08:08:54.042Z,8.90
2023-03-26T08:11:41.209Z,8.80
2023-03-26T08:14:33.648Z,9.10
2023-03-26T08:17:12.914Z,9.20
2023-03-26T08:20:02.247Z,9.00
2023-03-26T08:22:36.791Z,8.90
2023-03-26T08:25:25.511Z,8.70
2023-03-26T08:28:22.781Z,8.60
2023-03-26T08:30:55.002Z,8.30
2023-03-26T08:33:27.574Z,8.20
2023-03-26T08:35:56.261Z,8.00
2023-03-26T08:38:24.722Z,7.90
2023-03-26T08:41:38.571Z,7.80
2023-03-26T08:44:55.806Z,7.80
2023-03-26T08:48:33.970Z,8.00
2023-03-26T08:51:49.129Z,7.80
2023-03-26T08:55:08.250Z,8.10
2023-03-26T08:58:11.149Z,8.20
2023-03-26T09:00:57.505Z,8.50
2023-03-26T09:04:08.442Z,8.70
2023-03-26T09:07:28.117Z,8.80
2023-03-26T09:11:04.219Z,9.00
2023-03-26T09:14:31.589Z,9.30
2023-03-26T09:17:59.044Z,9.40
2023-03-26T09:21:10.204Z,9.30
2023-03-26T09:24:38.282Z,9.10
2023-03-26T09:27:39.388Z,9.30
2023-03-26T09:30:49.105Z,9.60
2023-03-26T09:33:52.229Z,9.30
2023-03-26T09:36:33.169Z,9.70
2023-03-26T09:39:16.994Z,9.50
2023-03-26T09:42:06.772Z,9.80
2023-03-26T09:45:34.794Z,9.80
2023-03-26T09:48:41.508Z,9.80
2023-03-26T09:51:38.073Z,9.90
2023-03-26T09:54:57.049Z,10.00
2023-03-26T09:57:53.818Z,10.10
2023-03-26T10:00:37.489Z,10.30
2023-03-26T10:03:36.111Z,10.60
2023-03-26T10:06:28.026Z,10.60
2023-03-26T10:09:20.649Z,10.50
2023-03-26T10:12:35.104Z,10.70
2023-03-26T10:15:31.807Z,10.60
2023-03-26T10:18:28.108Z,10.30
2023-03-26T10:21:07.705Z,10.50
2023-03-26T10:24:11.196Z,10.60
2023-03-26T10:27:08.667Z,10.00
2023-03-26T10:30:23.650Z,9.90
2023-03-26T10:33:07.746Z,9.90
2023-03-26T10:35:53.827Z,10.10
2023-03-26T10:38:42.037Z,10.30
2023-03-26T10:41:20.781Z,10.40
2023-03-26T10:44:34.138Z,10.40
2023-03-26T10:47:36.433Z,9.80
2023-03-26T10:50:33.308Z,9.70
2023-03-26T10:53:10.226Z,9.90
2023-03-26T10:55:41.905Z,10.00
2023-03-26T10:58:22.970Z,10.00
2023-03-26T11:00:59.142Z,10.00
2023-03-26T11:03:52.877Z,9.80
2023-03-26T11:06:38.716Z,10.00
2023-03-26T11:09:22.727Z,10.00
2023-03-26T11:12:00.106Z,9.80
2023-03-26T11:14:39.811Z,9.90
2023-03-26T11:17:40.120Z,10.00
2023-03-26T11:20:16.951Z,10.40
2023-03-26T11:23:03.018Z,10.70
2023-03-26T11:25:46.363Z,10.60
2023-03-26T11:28:41.783Z,10.90
2023-03-26T11:31:45.470Z,10.70
2023-03-26T11:34:29.160Z,10.30
2023-03-26T11:37:05.314Z,10.30
2023-03-26T11:39:50.804Z,10.30
2023-03-26T11:42:25.826Z,10.60
2023-03-26T11:45:13.828Z,10.90
2023-03-26T11:47:52.494Z,11.30
2023-03-26T11:50:28.601Z,10.60
2023-03-26T11:53:03.914Z,10.70
2023-03-26T11:55:35.818Z,11.20
2023-03-26T11:58:13.588Z,10.70
2023-03-26T12:00:55.101Z,11.30
2023-03-26T12:03:25.202Z,10.80
2023-03-26T12:06:02.914Z,11.00
2023-03-26T12:08:45.179Z,11.00
2023-03-26T12:11:16.403Z,11.20
2023-03-26T12:13:56.055Z,11.40
2023-03-26T12:16:29.380Z,11.80
2023-03-26T12:19:08.266Z,11.70
2023-03-26T12:21:48.642Z,11.70
2023-03-26T12:24:30.569Z,11.50
2023-03-26T12:27:04.018Z,11.70
2023-03-26T12:29:34.874Z,11.60
2023-03-26T12:32:23.761Z,11.80
2023-03-26T12:34:54.862Z,11.70
2023-03-26T12:37:44.913Z,12.70
2023-03-26T12:40:42.283Z,12.10
2023-03-26T12:44:46.781Z,12.00
2023-03-26T12:47:59.337Z,12.10
2023-03-26T12:49:29.426Z,12.20
2023-03-26T12:52:11.741Z,12.50
2023-03-26T12:54:54.393Z,12.30
2023-03-26T12:57:40.839Z,12.80
2023-03-26T13:00:38.332Z,12.70
2023-03-26T13:03:29.892Z,12.60
2023-03-26T13:06:21.902Z,12.30
2023-03-26T13:09:30.279Z,12.40
2023-03-26T13:12:23.679Z,12.50
2023-03-26T13:15:11.226Z,12.50
2023-03-26T13:18:07.623Z,12.60
2023-03-26T13:20:52.138Z,12.00
2023-03-26T13:23:37.371Z,13.10
2023-03-26T13:26:28.513Z,13.20
2023-03-26T13:29:13.101Z,13.50
2023-03-26T13:31:53.603Z,13.60
2023-03-26T13:34:49.354Z,13.10
2023-03-26T13:37:31.101Z,13.30
2023-03-26T13:40:26.464Z,13.20
2023-03-26T13:43:40.829Z,13.30
2023-03-26T13:46:23.658Z,13.10
2023-03-26T13:49:00.430Z,13.20
2023-03-26T13:51:45.188Z,13.30
2023-03-26T13:54:26.608Z,12.90
2023-03-26T13:57:06.602Z,12.90
2023-03-26T13:59:43.075Z,12.60
2023-03-26T14:02:27.285Z,12.50
2023-03-26T14:05:05.906Z,12.20
2023-03-26T14:07:45.892Z,12.10
2023-03-26T14:10:21.243Z,12.50
2023-03-26T14:13:01.644Z,12.50
2023-03-26T14:15:42.390Z,12.80
2023-03-26T14:18:36.831Z,12.90
2023-03-26T14:21:43.094Z,13.40
2023-03-26T14:25:03.527Z,13.20
2023-03-26T14:28:08.253Z,13.10
2023-03-26T14:31:26.502Z,14.00
2023-03-26T14:34:24.688Z,13.20
2023-03-26T14:37:38.280Z,13.40
2023-03-26T14:41:02.683Z,13.30
2023-03-26T14:44:47.894Z,13.70
2023-03-26T14:47:23.524Z,14.20
2023-03-26T14:50:51.470Z,14.10
2023-03-26T14:53:37.962Z,13.70
2023-03-26T14:56:50.007Z,14.20
2023-03-26T15:00:27.895Z,14.10
2023-03-26T15:04:12.529Z,14.00
2023-03-26T15:07:48.479Z,14.80
2023-03-26T15:10:56.032Z,13.80
2023-03-26T15:13:50.295Z,13.40
2023-03-26T15:17:17.203Z,13.10
2023-03-26T15:21:04.358Z,12.80
2023-03-26T15:24:41.676Z,12.60
2023-03-26T15:27:35.949Z,12.70
2023-03-26T15:30:58.750Z,12.40
2023-03-26T15:34:38.996Z,12.40
2023-03-26T15:38:01.644Z,12.20
2023-03-26T15:40:49.104Z,12.20
2023-03-26T15:43:21.262Z,12.30
2023-03-26T15:46:09.309Z,11.20
2023-03-26T15:49:12.064Z,12.10
2023-03-26T15:52:04.733Z,12.10
2023-03-26T15:54:47.310Z,12.00
2023-03-26T15:57:30.587Z,12.00
2023-03-26T16:00:30.288Z,11.90
2023-03-26T16:03:21.919Z,11.80
2023-03-26T16:06:54.676Z,11.70
2023-03-26T16:09:52.914Z,11.80
2023-03-26T16:12:36.638Z,11.80
2023-03-26T16:15:29.391Z,11.80
2023-03-26T16:18:34.135Z,11.80
2023-03-26T16:22:01.601Z,11.80
2023-03-26T16:25:27.298Z,10.50
2023-03-26T16:28:35.665Z,11.80
2023-03-26T16:31:41.201Z,12.90
2023-03-26T16:34:45.646Z,11.60
2023-03-26T16:38:21.456Z,11.50
2023-03-26T16:41:27.817Z,11.50
2023-03-26T16:45:01.025Z,11.30
2023-03-26T16:48:15.577Z,11.20
2023-03-26T16:51:28.342Z,11.10
2023-03-26T16:54:10.282Z,11.00
2023-03-26T16:56:55.092Z,10.90
2023-03-26T17:00:06.810Z,10.80
2023-03-26T17:02:53.224Z,10.60
2023-03-26T17:05:34.249Z,10.50
2023-03-26T17:08:17.409Z,10.50
2023-03-26T17:11:00.461Z,10.40
2023-03-26T17:13:45.474Z,10.30
2023-03-26T17:16:24.360Z,10.20
2023-03-26T17:19:06.572Z,10.30
2023-03-26T17:21:47.355Z,10.30
2023-03-26T17:24:33.617Z,10.20
2023-03-26T17:27:27.822Z,10.20
2023-03-26T17:30:04.958Z,10.20
2023-03-26T17:32:59.836Z,10.00
2023-03-26T17:35:41.768Z,10.00
2023-03-26T17:39:08.184Z,9.90
2023-03-26T17:42:02.324Z,9.80
2023-03-26T17:44:48.593Z,9.80
2023-03-26T17:47:31.054Z,9.80
2023-03-26T17:50:06.333Z,9.80
2023-03-26T17:52:50.388Z,9.70
2023-03-26T17:55:21.553Z,9.70
2023-03-26T17:57:55.065Z,9.60
2023-03-26T18:00:30.171Z,9.60
2023-03-26T18:03:04.805Z,9.70
2023-03-26T18:05:39.760Z,9.70
2023-03-26T18:08:45.167Z,9.60
2023-03-26T18:11:45.322Z,9.60
2023-03-26T18:15:08.913Z,9.60
2023-03-26T18:17:46.927Z,9.60
2023-03-26T18:20:24.442Z,9.50
2023-03-26T18:22:54.497Z,9.50
2023-03-26T18:25:28.285Z,9.50
2023-03-26T18:27:59.560Z,9.50
2023-03-26T18:30:27.969Z,9.40
2023-03-26T18:33:05.139Z,9.40
2023-03-26T18:35:44.311Z,9.40
2023-03-26T18:38:36.259Z,9.40
2023-03-26T18:41:15.002Z,9.40
2023-03-26T18:43:44.050Z,9.30
2023-03-26T18:46:16.709Z,9.40
2023-03-26T18:48:48.094Z,9.30
2023-03-26T18:51:22.861Z,9.30
2023-03-26T18:53:56.545Z,9.30
2023-03-26T18:56:36.603Z,9.30
2023-03-26T18:59:08.529Z,9.40
2023-03-26T19:01:38.960Z,9.30
2023-03-26T19:04:11.930Z,9.40
2023-03-26T19:06:43.970Z,9.30
2023-03-26T19:09:30.264Z,9.30
2023-03-26T19:12:07.529Z,9.20
2023-03-26T19:14:52.176Z,9.20
2023-03-26T19:17:20.819Z,9.10
2023-03-26T19:19:51.698Z,9.10
2023-03-26T19:22:22.473Z,9.00
2023-03-26T19:24:59.107Z,9.00
2023-03-26T19:27:27.778Z,9.00
2023-03-26T19:29:56.287Z,9.00
2023-03-26T19:32:33.014Z,9.00
2023-03-26T19:35:04.410Z,9.00
2023-03-26T19:37:33.522Z,9.00
2023-03-26T19:40:14.105Z,9.10
2023-03-26T19:42:45.095Z,9.10
2023-03-26T19:45:19.283Z,9.10
2023-03-26T19:48:00.175Z,9.10
2023-03-26T19:50:43.164Z,9.10
2023-03-26T19:53:18.635Z,9.10
2023-03-26T19:55:57.269Z,9.00
2023-03-26T19:58:27.213Z,8.90
2023-03-26T20:00:56.933Z,8.70
2023-03-26T20:03:30.470Z,8.60
2023-03-26T20:06:00.171Z,8.60
2023-03-26T20:08:29.224Z,8.60
2023-03-26T20:10:59.443Z,8.50
2023-03-26T20:13:28.138Z,8.50
2023-03-26T20:16:13.656Z,8.40
2023-03-26T20:18:42.317Z,8.30
2023-03-26T20:21:15.167Z,8.20
2023-03-26T20:23:44.607Z,8.20
2023-03-26T20:26:15.431Z,8.10
2023-03-26T20:28:48.172Z,8.10
2023-03-26T20:31:21.826Z,8.10
2023-03-26T20:33:51.942Z,8.10
2023-03-26T20:36:34.287Z,8.00
2023-03-26T20:39:06.503Z,7.90
2023-03-26T20:41:37.997Z,8.10
2023-03-26T20:44:13.693Z,8.00
2023-03-26T20:46:43.834Z,7.90
2023-03-26T20:49:15.018Z,7.80
2023-03-26T20:51:45.293Z,7.80
2023-03-26T20:54:18.022Z,7.80
2023-03-26T20:56:47.744Z,7.80
2023-03-26T20:59:21.718Z,7.80
2023-03-26T21:01:51.655Z,7.70
2023-03-26T21:04:22.087Z,7.60
2023-03-26T21:06:53.400Z,7.60
2023-03-26T21:09:25.222Z,7.50
2023-03-26T21:12:04.222Z,7.50
2023-03-26T21:14:39.231Z,7.60
2023-03-26T21:17:14.447Z,7.60
2023-03-26T21:19:43.687Z,7.40
2023-03-26T21:22:31.602Z,7.40
2023-03-26T21:25:17.051Z,7.30
2023-03-26T21:28:11.245Z,7.20
2023-03-26T21:30:40.890Z,7.20
2023-03-26T21:33:09.306Z,7.00
2023-03-26T21:35:38.549Z,7.00
2023-03-26T21:38:09.567Z,7.00
2023-03-26T21:40:42.391Z,7.00
2023-03-26T21:43:16.639Z,6.90
2023-03-26T21:45:46.316Z,6.80
2023-03-26T21:48:15.495Z,6.70
2023-03-26T21:50:44.851Z,6.70
2023-03-26T21:53:16.902Z,6.70
2023-03-26T21:56:06.161Z,6.70
2023-03-26T21:58:52.288Z,6.70
2023-03-26T22:01:33.133Z,6.60
2023-03-26T22:04:14.736Z,6.60
2023-03-26T22:06:51.944Z,6.60
2023-03-26T22:09:33.935Z,6.50
2023-03-26T22:12:04.487Z,6.50
2023-03-26T22:14:33.592Z,6.40
2023-03-26T22:17:01.759Z,6.40
2023-03-26T22:19:30.657Z,6.30
2023-03-26T22:22:00.011Z,6.20
2023-03-26T22:24:29.856Z,6.20
2023-03-26T22:26:58.255Z,6.30
2023-03-26T22:29:27.296Z,6.30
2023-03-26T22:31:55.740Z,6.30
2023-03-26T22:34:24.490Z,6.20
2023-03-26T22:36:53.311Z,6.20
2023-03-26T22:39:21.515Z,6.10
2023-03-26T22:41:51.293Z,6.00
2023-03-26T22:44:20.582Z,6.10
2023-03-26T22:46:51.396Z,6.10
2023-03-26T22:49:20.112Z,6.00
2023-03-26T22:51:50.049Z,6.10
2023-03-26T22:54:18.232Z,6.10
2023-03-26T22:56:46.748Z,6.20
2023-03-26T22:59:16.432Z,6.00
2023-03-26T23:01:45.788Z,6.00
2023-03-26T23:04:30.813Z,5.90
2023-03-26T23:07:00.725Z,5.90
2023-03-26T23:09:29.440Z,5.90
2023-03-26T23:11:58.067Z,5.90
2023-03-26T23:14:29.098Z,5.80
2023-03-26T23:16:57.501Z,5.80
2023-03-26T23:19:25.774Z,5.80
2023-03-26T23:21:53.957Z,5.80
2023-03-26T23:24:22.365Z,5.80
2023-03-26T23:26:51.369Z,5.80
2023-03-26T23:29:19.880Z,5.80
2023-03-26T23:31:49.528Z,5.70
2023-03-26T23:34:18.504Z,5.70
2023-03-26T23:36:47.037Z,5.70
2023-03-26T23:39:15.846Z,5.80
2023-03-26T23:41:44.064Z,5.70
2023-03-26T23:44:14.824Z,5.70
2023-03-26T23:46:44.171Z,5.70
2023-03-26T23:49:14.892Z,5.70
2023-03-26T23:51:43.177Z,5.50
2023-03-26T23:54:11.620Z,5.50
2023-03-26T23:56:39.966Z,5.50
2023-03-26T23:59:08.385Z,5.50
